sensor_id;sensor_type;location;lat;lon;timestamp;P1;durP1;ratioP1;P2;durP2;ratioP2
15665;SDS011;20725;51.196;3.510;2023-04-25T00:05:35;18.27;;;5.53;;
15665;SDS011;20725;51.196;3.510;2023-04-25T00:08:03;17.83;;;5.40;;
15665;SDS011;20725;51.196;3.510;2023-04-25T00:10:31;14.77;;;5.00;;
15665;SDS011;20725;51.196;3.510;2023-04-25T00:12:59;17.73;;;5.40;;
15665;SDS011;20725;51.196;3.510;2023-04-25T00:15:27;12.30;;;5.63;;
15665;SDS011;20725;51.196;3.510;2023-04-25T00:17:55;25.00;;;5.20;;
15665;SDS011;20725;51.196;3.510;2023-04-25T00:20:23;16.33;;;5.07;;
15665;SDS011;20725;51.196;3.510;2023-04-25T00:22:50;21.53;;;5.30;;
15665;SDS011;20725;51.196;3.510;2023-04-25T00:25:17;11.10;;;5.53;;
15665;SDS011;20725;51.196;3.510;2023-04-25T00:27:46;15.40;;;5.77;;
15665;SDS011;20725;51.196;3.510;2023-04-25T00:30:14;16.07;;;6.00;;
15665;SDS011;20725;51.196;3.510;2023-04-25T00:32:41;16.87;;;5.03;;
15665;SDS011;20725;51.196;3.510;2023-04-25T00:35:08;14.67;;;5.57;;
15665;SDS011;20725;51.196;3.510;2023-04-25T00:37:36;11.57;;;5.20;;
15665;SDS011;20725;51.196;3.510;2023-04-25T00:40:04;16.23;;;5.17;;
15665;SDS011;20725;51.196;3.510;2023-04-25T00:42:33;19.50;;;5.57;;
15665;SDS011;20725;51.196;3.510;2023-04-25T00:45:03;17.03;;;5.90;;
15665;SDS011;20725;51.196;3.510;2023-04-25T00:47:31;24.57;;;5.97;;
15665;SDS011;20725;51.196;3.510;2023-04-25T00:49:59;18.40;;;5.83;;
15665;SDS011;20725;51.196;3.510;2023-04-25T00:52:26;23.40;;;6.17;;
15665;SDS011;20725;51.196;3.510;2023-04-25T00:54:53;16.03;;;5.53;;
15665;SDS011;20725;51.196;3.510;2023-04-25T00:57:21;16.17;;;5.80;;
15665;SDS011;20725;51.196;3.510;2023-04-25T00:59:48;15.97;;;4.80;;
15665;SDS011;20725;51.196;3.510;2023-04-25T01:02:23;12.97;;;4.60;;
15665;SDS011;20725;51.196;3.510;2023-04-25T01:05:02;12.17;;;4.73;;
15665;SDS011;20725;51.196;3.510;2023-04-25T01:10:45;16.13;;;4.87;;
15665;SDS011;20725;51.196;3.510;2023-04-25T01:13:15;13.60;;;4.60;;
15665;SDS011;20725;51.196;3.510;2023-04-25T01:16:23;17.40;;;5.07;;
15665;SDS011;20725;51.196;3.510;2023-04-25T01:18:48;17.57;;;5.47;;
15665;SDS011;20725;51.196;3.510;2023-04-25T01:27:18;17.23;;;5.50;;
15665;SDS011;20725;51.196;3.510;2023-04-25T01:29:48;14.97;;;5.43;;
15665;SDS011;20725;51.196;3.510;2023-04-25T01:32:18;10.63;;;4.27;;
15665;SDS011;20725;51.196;3.510;2023-04-25T01:34:52;15.70;;;5.40;;
15665;SDS011;20725;51.196;3.510;2023-04-25T01:37:22;15.83;;;5.57;;
15665;SDS011;20725;51.196;3.510;2023-04-25T01:39:50;12.33;;;4.90;;
15665;SDS011;20725;51.196;3.510;2023-04-25T01:42:29;14.47;;;5.50;;
15665;SDS011;20725;51.196;3.510;2023-04-25T01:47:54;12.50;;;4.83;;
15665;SDS011;20725;51.196;3.510;2023-04-25T01:50:24;18.10;;;4.70;;
15665;SDS011;20725;51.196;3.510;2023-04-25T01:52:57;14.53;;;5.30;;
15665;SDS011;20725;51.196;3.510;2023-04-25T01:55:27;16.03;;;5.60;;
15665;SDS011;20725;51.196;3.510;2023-04-25T01:58:01;17.53;;;5.30;;
15665;SDS011;20725;51.196;3.510;2023-04-25T02:00:37;17.20;;;5.67;;
15665;SDS011;20725;51.196;3.510;2023-04-25T02:03:09;18.07;;;6.10;;
15665;SDS011;20725;51.196;3.510;2023-04-25T02:05:39;15.27;;;5.70;;
15665;SDS011;20725;51.196;3.510;2023-04-25T02:08:07;19.73;;;6.00;;
15665;SDS011;20725;51.196;3.510;2023-04-25T02:10:35;16.87;;;5.83;;
15665;SDS011;20725;51.196;3.510;2023-04-25T02:13:12;15.67;;;6.73;;
15665;SDS011;20725;51.196;3.510;2023-04-25T02:15:40;21.50;;;5.70;;
15665;SDS011;20725;51.196;3.510;2023-04-25T02:18:10;15.97;;;5.57;;
15665;SDS011;20725;51.196;3.510;2023-04-25T02:20:40;14.13;;;5.87;;
15665;SDS011;20725;51.196;3.510;2023-04-25T02:23:10;18.30;;;6.30;;
15665;SDS011;20725;51.196;3.510;2023-04-25T02:25:38;15.70;;;5.60;;
15665;SDS011;20725;51.196;3.510;2023-04-25T02:28:13;16.10;;;5.30;;
15665;SDS011;20725;51.196;3.510;2023-04-25T02:30:53;14.43;;;5.40;;
15665;SDS011;20725;51.196;3.510;2023-04-25T02:33:28;15.07;;;5.33;;
15665;SDS011;20725;51.196;3.510;2023-04-25T02:35:57;17.63;;;5.63;;
15665;SDS011;20725;51.196;3.510;2023-04-25T02:38:38;13.90;;;5.27;;
15665;SDS011;20725;51.196;3.510;2023-04-25T02:41:06;11.07;;;4.60;;
15665;SDS011;20725;51.196;3.510;2023-04-25T02:43:44;16.63;;;5.20;;
15665;SDS011;20725;51.196;3.510;2023-04-25T02:46:19;11.93;;;4.67;;
15665;SDS011;20725;51.196;3.510;2023-04-25T02:48:47;12.27;;;4.57;;
15665;SDS011;20725;51.196;3.510;2023-04-25T02:51:21;10.03;;;4.40;;
15665;SDS011;20725;51.196;3.510;2023-04-25T02:54:00;9.50;;;4.33;;
15665;SDS011;20725;51.196;3.510;2023-04-25T02:56:46;13.03;;;4.80;;
15665;SDS011;20725;51.196;3.510;2023-04-25T02:59:25;10.13;;;4.20;;
15665;SDS011;20725;51.196;3.510;2023-04-25T03:02:03;14.27;;;5.13;;
15665;SDS011;20725;51.196;3.510;2023-04-25T03:04:51;10.73;;;4.30;;
15665;SDS011;20725;51.196;3.510;2023-04-25T03:07:24;9.07;;;4.43;;
15665;SDS011;20725;51.196;3.510;2023-04-25T03:09:58;8.50;;;3.50;;
15665;SDS011;20725;51.196;3.510;2023-04-25T03:12:26;10.90;;;4.57;;
15665;SDS011;20725;51.196;3.510;2023-04-25T03:15:07;12.93;;;4.20;;
15665;SDS011;20725;51.196;3.510;2023-04-25T03:17:35;13.20;;;4.20;;
15665;SDS011;20725;51.196;3.510;2023-04-25T03:20:11;15.17;;;4.50;;
15665;SDS011;20725;51.196;3.510;2023-04-25T03:22:52;16.50;;;5.10;;
15665;SDS011;20725;51.196;3.510;2023-04-25T03:25:31;10.23;;;4.13;;
15665;SDS011;20725;51.196;3.510;2023-04-25T03:27:59;13.20;;;4.83;;
15665;SDS011;20725;51.196;3.510;2023-04-25T03:30:36;10.53;;;4.33;;
15665;SDS011;20725;51.196;3.510;2023-04-25T03:33:15;10.30;;;3.87;;
15665;SDS011;20725;51.196;3.510;2023-04-25T03:35:52;9.20;;;3.90;;
15665;SDS011;20725;51.196;3.510;2023-04-25T03:38:30;12.27;;;4.67;;
15665;SDS011;20725;51.196;3.510;2023-04-25T03:41:09;9.80;;;5.10;;
15665;SDS011;20725;51.196;3.510;2023-04-25T03:43:44;6.83;;;4.33;;
15665;SDS011;20725;51.196;3.510;2023-04-25T03:46:32;15.67;;;4.83;;
15665;SDS011;20725;51.196;3.510;2023-04-25T03:49:06;11.80;;;5.30;;
15665;SDS011;20725;51.196;3.510;2023-04-25T03:51:54;13.27;;;4.23;;
15665;SDS011;20725;51.196;3.510;2023-04-25T03:54:28;10.37;;;4.20;;
15665;SDS011;20725;51.196;3.510;2023-04-25T03:56:59;13.97;;;4.30;;
15665;SDS011;20725;51.196;3.510;2023-04-25T03:59:30;9.73;;;4.50;;
15665;SDS011;20725;51.196;3.510;2023-04-25T04:07:50;9.90;;;4.10;;
15665;SDS011;20725;51.196;3.510;2023-04-25T04:10:26;11.20;;;4.67;;
15665;SDS011;20725;51.196;3.510;2023-04-25T04:12:57;6.10;;;3.27;;
15665;SDS011;20725;51.196;3.510;2023-04-25T04:15:25;12.27;;;3.87;;
15665;SDS011;20725;51.196;3.510;2023-04-25T04:17:53;10.23;;;4.20;;
15665;SDS011;20725;51.196;3.510;2023-04-25T04:20:27;6.40;;;3.73;;
15665;SDS011;20725;51.196;3.510;2023-04-25T04:23:15;11.93;;;3.90;;
15665;SDS011;20725;51.196;3.510;2023-04-25T04:25:56;10.50;;;4.20;;
15665;SDS011;20725;51.196;3.510;2023-04-25T04:34:55;12.87;;;4.10;;
15665;SDS011;20725;51.196;3.510;2023-04-25T04:38:32;7.47;;;3.60;;
15665;SDS011;20725;51.196;3.510;2023-04-25T04:40:29;10.27;;;3.73;;
15665;SDS011;20725;51.196;3.510;2023-04-25T04:43:11;16.47;;;4.00;;
15665;SDS011;20725;51.196;3.510;2023-04-25T04:45:44;10.47;;;4.03;;
15665;SDS011;20725;51.196;3.510;2023-04-25T04:48:41;11.40;;;4.33;;
15665;SDS011;20725;51.196;3.510;2023-04-25T04:51:42;17.53;;;4.93;;
15665;SDS011;20725;51.196;3.510;2023-04-25T04:54:17;9.67;;;3.80;;
15665;SDS011;20725;51.196;3.510;2023-04-25T04:57:01;9.50;;;4.00;;
15665;SDS011;20725;51.196;3.510;2023-04-25T04:59:45;11.07;;;3.70;;
15665;SDS011;20725;51.196;3.510;2023-04-25T05:02:29;14.50;;;4.93;;
15665;SDS011;20725;51.196;3.510;2023-04-25T05:05:02;7.37;;;3.67;;
15665;SDS011;20725;51.196;3.510;2023-04-25T05:07:38;12.87;;;4.33;;
15665;SDS011;20725;51.196;3.510;2023-04-25T05:10:10;10.60;;;3.40;;
15665;SDS011;20725;51.196;3.510;2023-04-25T05:18:58;11.83;;;3.70;;
15665;SDS011;20725;51.196;3.510;2023-04-25T05:21:38;10.83;;;3.67;;
15665;SDS011;20725;51.196;3.510;2023-04-25T05:24:25;10.93;;;4.30;;
15665;SDS011;20725;51.196;3.510;2023-04-25T05:27:16;9.97;;;4.03;;
15665;SDS011;20725;51.196;3.510;2023-04-25T05:30:05;13.97;;;4.43;;
15665;SDS011;20725;51.196;3.510;2023-04-25T05:32:51;9.93;;;3.63;;
15665;SDS011;20725;51.196;3.510;2023-04-25T05:38:36;6.77;;;2.90;;
15665;SDS011;20725;51.196;3.510;2023-04-25T05:41:34;11.67;;;3.17;;
15665;SDS011;20725;51.196;3.510;2023-04-25T05:46:46;9.13;;;3.27;;
15665;SDS011;20725;51.196;3.510;2023-04-25T05:49:13;8.57;;;3.30;;
15665;SDS011;20725;51.196;3.510;2023-04-25T05:51:41;13.07;;;3.30;;
15665;SDS011;20725;51.196;3.510;2023-04-25T05:54:09;13.50;;;3.30;;
15665;SDS011;20725;51.196;3.510;2023-04-25T05:56:36;9.47;;;3.13;;
15665;SDS011;20725;51.196;3.510;2023-04-25T05:59:04;4.70;;;3.03;;
15665;SDS011;20725;51.196;3.510;2023-04-25T06:01:31;7.13;;;2.80;;
15665;SDS011;20725;51.196;3.510;2023-04-25T06:03:58;7.17;;;2.87;;
15665;SDS011;20725;51.196;3.510;2023-04-25T06:06:26;8.90;;;3.57;;
15665;SDS011;20725;51.196;3.510;2023-04-25T06:08:53;7.03;;;2.73;;
15665;SDS011;20725;51.196;3.510;2023-04-25T06:11:22;15.50;;;3.47;;
15665;SDS011;20725;51.196;3.510;2023-04-25T06:13:49;7.77;;;2.80;;
15665;SDS011;20725;51.196;3.510;2023-04-25T06:16:17;6.87;;;2.60;;
15665;SDS011;20725;51.196;3.510;2023-04-25T06:18:44;4.47;;;2.63;;
15665;SDS011;20725;51.196;3.510;2023-04-25T06:21:11;9.30;;;3.07;;
15665;SDS011;20725;51.196;3.510;2023-04-25T06:23:39;9.40;;;3.10;;
15665;SDS011;20725;51.196;3.510;2023-04-25T06:26:06;6.80;;;3.30;;
15665;SDS011;20725;51.196;3.510;2023-04-25T06:28:35;3.53;;;2.40;;
15665;SDS011;20725;51.196;3.510;2023-04-25T06:31:02;15.17;;;3.23;;
15665;SDS011;20725;51.196;3.510;2023-04-25T06:33:29;11.87;;;2.90;;
15665;SDS011;20725;51.196;3.510;2023-04-25T06:35:56;9.50;;;3.03;;
15665;SDS011;20725;51.196;3.510;2023-04-25T06:38:24;6.47;;;2.87;;
15665;SDS011;20725;51.196;3.510;2023-04-25T06:40:51;10.13;;;3.00;;
15665;SDS011;20725;51.196;3.510;2023-04-25T06:43:18;11.73;;;2.80;;
15665;SDS011;20725;51.196;3.510;2023-04-25T06:45:47;8.73;;;2.73;;
15665;SDS011;20725;51.196;3.510;2023-04-25T06:48:14;5.37;;;2.47;;
15665;SDS011;20725;51.196;3.510;2023-04-25T06:50:41;8.73;;;2.63;;
15665;SDS011;20725;51.196;3.510;2023-04-25T06:53:09;7.50;;;1.90;;
15665;SDS011;20725;51.196;3.510;2023-04-25T06:55:36;9.50;;;2.03;;
15665;SDS011;20725;51.196;3.510;2023-04-25T06:58:03;5.40;;;2.50;;
15665;SDS011;20725;51.196;3.510;2023-04-25T07:00:31;4.67;;;2.13;;
15665;SDS011;20725;51.196;3.510;2023-04-25T07:03:00;6.13;;;2.40;;
15665;SDS011;20725;51.196;3.510;2023-04-25T07:05:27;5.60;;;1.93;;
15665;SDS011;20725;51.196;3.510;2023-04-25T07:07:54;6.70;;;2.23;;
15665;SDS011;20725;51.196;3.510;2023-04-25T07:10:22;4.60;;;2.20;;
15665;SDS011;20725;51.196;3.510;2023-04-25T07:12:50;8.23;;;2.50;;
15665;SDS011;20725;51.196;3.510;2023-04-25T07:15:17;6.57;;;1.90;;
15665;SDS011;20725;51.196;3.510;2023-04-25T07:17:44;5.13;;;1.83;;
15665;SDS011;20725;51.196;3.510;2023-04-25T07:20:13;5.23;;;1.90;;
15665;SDS011;20725;51.196;3.510;2023-04-25T07:22:41;8.33;;;1.77;;
15665;SDS011;20725;51.196;3.510;2023-04-25T07:25:09;7.23;;;1.97;;
15665;SDS011;20725;51.196;3.510;2023-04-25T07:27:36;7.03;;;2.40;;
15665;SDS011;20725;51.196;3.510;2023-04-25T07:30:04;3.47;;;2.20;;
15665;SDS011;20725;51.196;3.510;2023-04-25T07:32:32;4.40;;;2.13;;
15665;SDS011;20725;51.196;3.510;2023-04-25T07:34:59;9.73;;;1.87;;
15665;SDS011;20725;51.196;3.510;2023-04-25T07:37:28;5.00;;;2.07;;
15665;SDS011;20725;51.196;3.510;2023-04-25T07:39:55;7.20;;;2.03;;
15665;SDS011;20725;51.196;3.510;2023-04-25T07:42:23;11.33;;;2.90;;
15665;SDS011;20725;51.196;3.510;2023-04-25T07:44:50;5.47;;;2.17;;
15665;SDS011;20725;51.196;3.510;2023-04-25T07:47:17;5.77;;;2.13;;
15665;SDS011;20725;51.196;3.510;2023-04-25T07:49:45;6.40;;;2.17;;
15665;SDS011;20725;51.196;3.510;2023-04-25T07:52:12;4.60;;;1.90;;
15665;SDS011;20725;51.196;3.510;2023-04-25T07:54:41;6.70;;;2.17;;
15665;SDS011;20725;51.196;3.510;2023-04-25T07:57:08;7.83;;;2.50;;
15665;SDS011;20725;51.196;3.510;2023-04-25T07:59:36;5.40;;;1.80;;
15665;SDS011;20725;51.196;3.510;2023-04-25T08:02:03;7.30;;;1.93;;
15665;SDS011;20725;51.196;3.510;2023-04-25T08:04:30;4.13;;;2.00;;
15665;SDS011;20725;51.196;3.510;2023-04-25T08:06:57;7.27;;;2.47;;
15665;SDS011;20725;51.196;3.510;2023-04-25T08:09:25;4.20;;;1.80;;
15665;SDS011;20725;51.196;3.510;2023-04-25T08:11:53;6.53;;;1.83;;
15665;SDS011;20725;51.196;3.510;2023-04-25T08:14:21;5.00;;;2.10;;
15665;SDS011;20725;51.196;3.510;2023-04-25T08:16:48;5.13;;;1.73;;
15665;SDS011;20725;51.196;3.510;2023-04-25T08:19:15;4.60;;;2.03;;
15665;SDS011;20725;51.196;3.510;2023-04-25T08:21:42;6.13;;;1.70;;
15665;SDS011;20725;51.196;3.510;2023-04-25T08:24:09;4.43;;;1.70;;
15665;SDS011;20725;51.196;3.510;2023-04-25T08:26:37;7.60;;;2.00;;
15665;SDS011;20725;51.196;3.510;2023-04-25T08:29:06;6.43;;;2.40;;
15665;SDS011;20725;51.196;3.510;2023-04-25T08:31:33;5.13;;;2.10;;
15665;SDS011;20725;51.196;3.510;2023-04-25T08:34:00;4.77;;;1.80;;
15665;SDS011;20725;51.196;3.510;2023-04-25T08:36:27;6.30;;;1.70;;
15665;SDS011;20725;51.196;3.510;2023-04-25T08:38:55;6.57;;;1.80;;
15665;SDS011;20725;51.196;3.510;2023-04-25T08:41:22;4.67;;;1.60;;
15665;SDS011;20725;51.196;3.510;2023-04-25T08:43:50;4.30;;;1.87;;
15665;SDS011;20725;51.196;3.510;2023-04-25T08:46:20;4.33;;;1.70;;
15665;SDS011;20725;51.196;3.510;2023-04-25T08:48:47;3.87;;;1.60;;
15665;SDS011;20725;51.196;3.510;2023-04-25T08:51:17;2.90;;;1.50;;
15665;SDS011;20725;51.196;3.510;2023-04-25T08:53:50;2.73;;;1.37;;
15665;SDS011;20725;51.196;3.510;2023-04-25T08:56:18;3.33;;;1.27;;
15665;SDS011;20725;51.196;3.510;2023-04-25T08:58:48;3.27;;;1.30;;
15665;SDS011;20725;51.196;3.510;2023-04-25T09:01:16;3.03;;;1.20;;
15665;SDS011;20725;51.196;3.510;2023-04-25T09:03:45;2.93;;;1.27;;
15665;SDS011;20725;51.196;3.510;2023-04-25T09:06:12;3.47;;;1.20;;
15665;SDS011;20725;51.196;3.510;2023-04-25T09:08:41;4.73;;;1.40;;
15665;SDS011;20725;51.196;3.510;2023-04-25T09:11:08;3.57;;;1.43;;
15665;SDS011;20725;51.196;3.510;2023-04-25T09:13:35;3.50;;;1.23;;
15665;SDS011;20725;51.196;3.510;2023-04-25T09:16:03;2.17;;;1.20;;
15665;SDS011;20725;51.196;3.510;2023-04-25T09:18:31;1.83;;;1.07;;
15665;SDS011;20725;51.196;3.510;2023-04-25T09:21:05;3.23;;;1.40;;
15665;SDS011;20725;51.196;3.510;2023-04-25T09:23:38;3.67;;;1.20;;
15665;SDS011;20725;51.196;3.510;2023-04-25T09:26:06;4.07;;;1.43;;
15665;SDS011;20725;51.196;3.510;2023-04-25T09:28:34;6.30;;;1.77;;
15665;SDS011;20725;51.196;3.510;2023-04-25T09:31:03;3.87;;;1.47;;
15665;SDS011;20725;51.196;3.510;2023-04-25T09:33:31;2.87;;;1.40;;
15665;SDS011;20725;51.196;3.510;2023-04-25T09:36:04;4.73;;;1.83;;
15665;SDS011;20725;51.196;3.510;2023-04-25T09:38:32;4.03;;;1.47;;
15665;SDS011;20725;51.196;3.510;2023-04-25T09:41:06;4.10;;;1.27;;
15665;SDS011;20725;51.196;3.510;2023-04-25T09:43:34;2.60;;;1.07;;
15665;SDS011;20725;51.196;3.510;2023-04-25T09:46:01;3.80;;;1.43;;
15665;SDS011;20725;51.196;3.510;2023-04-25T09:48:28;1.83;;;1.30;;
15665;SDS011;20725;51.196;3.510;2023-04-25T09:51:07;7.40;;;1.70;;
15665;SDS011;20725;51.196;3.510;2023-04-25T09:53:35;3.90;;;1.37;;
15665;SDS011;20725;51.196;3.510;2023-04-25T09:56:03;4.90;;;1.83;;
15665;SDS011;20725;51.196;3.510;2023-04-25T09:58:31;4.13;;;2.03;;
15665;SDS011;20725;51.196;3.510;2023-04-25T10:01:00;7.03;;;2.00;;
15665;SDS011;20725;51.196;3.510;2023-04-25T10:03:29;4.20;;;2.07;;
15665;SDS011;20725;51.196;3.510;2023-04-25T10:05:57;3.70;;;1.77;;
15665;SDS011;20725;51.196;3.510;2023-04-25T10:08:29;4.47;;;1.50;;
15665;SDS011;20725;51.196;3.510;2023-04-25T10:10:58;5.90;;;1.73;;
15665;SDS011;20725;51.196;3.510;2023-04-25T10:13:26;5.83;;;1.67;;
15665;SDS011;20725;51.196;3.510;2023-04-25T10:15:54;5.43;;;1.83;;
15665;SDS011;20725;51.196;3.510;2023-04-25T10:18:22;5.47;;;1.40;;
15665;SDS011;20725;51.196;3.510;2023-04-25T10:20:50;4.47;;;1.53;;
15665;SDS011;20725;51.196;3.510;2023-04-25T10:23:17;3.40;;;1.70;;
15665;SDS011;20725;51.196;3.510;2023-04-25T10:25:46;5.13;;;2.20;;
15665;SDS011;20725;51.196;3.510;2023-04-25T10:28:14;3.57;;;1.67;;
15665;SDS011;20725;51.196;3.510;2023-04-25T10:33:28;4.33;;;1.80;;
15665;SDS011;20725;51.196;3.510;2023-04-25T10:35:57;4.17;;;1.70;;
15665;SDS011;20725;51.196;3.510;2023-04-25T10:38:24;5.27;;;1.90;;
15665;SDS011;20725;51.196;3.510;2023-04-25T10:41:06;4.97;;;1.50;;
15665;SDS011;20725;51.196;3.510;2023-04-25T10:43:35;8.60;;;2.03;;
15665;SDS011;20725;51.196;3.510;2023-04-25T10:46:03;4.53;;;1.30;;
15665;SDS011;20725;51.196;3.510;2023-04-25T10:48:43;2.47;;;1.40;;
15665;SDS011;20725;51.196;3.510;2023-04-25T10:51:14;3.50;;;1.50;;
15665;SDS011;20725;51.196;3.510;2023-04-25T10:53:43;2.80;;;1.30;;
15665;SDS011;20725;51.196;3.510;2023-04-25T10:56:12;4.63;;;1.50;;
15665;SDS011;20725;51.196;3.510;2023-04-25T10:58:43;4.67;;;1.60;;
15665;SDS011;20725;51.196;3.510;2023-04-25T11:01:12;3.20;;;1.50;;
15665;SDS011;20725;51.196;3.510;2023-04-25T11:03:43;3.73;;;1.47;;
15665;SDS011;20725;51.196;3.510;2023-04-25T11:06:17;5.50;;;1.80;;
15665;SDS011;20725;51.196;3.510;2023-04-25T11:08:48;8.27;;;1.87;;
15665;SDS011;20725;51.196;3.510;2023-04-25T11:11:17;4.57;;;1.57;;
15665;SDS011;20725;51.196;3.510;2023-04-25T11:13:47;4.13;;;2.13;;
15665;SDS011;20725;51.196;3.510;2023-04-25T11:16:14;3.87;;;1.40;;
15665;SDS011;20725;51.196;3.510;2023-04-25T11:18:42;5.27;;;1.50;;
15665;SDS011;20725;51.196;3.510;2023-04-25T11:21:09;3.50;;;1.50;;
15665;SDS011;20725;51.196;3.510;2023-04-25T11:23:36;4.53;;;1.53;;
15665;SDS011;20725;51.196;3.510;2023-04-25T11:26:04;4.07;;;1.30;;
15665;SDS011;20725;51.196;3.510;2023-04-25T11:28:32;5.30;;;1.63;;
15665;SDS011;20725;51.196;3.510;2023-04-25T11:31:00;3.80;;;1.20;;
15665;SDS011;20725;51.196;3.510;2023-04-25T11:33:27;3.00;;;1.40;;
15665;SDS011;20725;51.196;3.510;2023-04-25T11:35:55;5.85;;;1.23;;
15665;SDS011;20725;51.196;3.510;2023-04-25T11:38:22;4.43;;;1.77;;
15665;SDS011;20725;51.196;3.510;2023-04-25T11:40:50;4.50;;;1.70;;
15665;SDS011;20725;51.196;3.510;2023-04-25T11:43:19;3.67;;;1.60;;
15665;SDS011;20725;51.196;3.510;2023-04-25T11:45:49;4.25;;;1.77;;
15665;SDS011;20725;51.196;3.510;2023-04-25T11:48:17;7.65;;;1.90;;
15665;SDS011;20725;51.196;3.510;2023-04-25T11:50:45;4.03;;;1.50;;
15665;SDS011;20725;51.196;3.510;2023-04-25T11:53:13;4.57;;;2.05;;
15665;SDS011;20725;51.196;3.510;2023-04-25T11:55:40;17.90;;;2.10;;
15665;SDS011;20725;51.196;3.510;2023-04-25T11:58:07;15.30;;;2.40;;
15665;SDS011;20725;51.196;3.510;2023-04-25T12:00:35;5.57;;;2.03;;
15665;SDS011;20725;51.196;3.510;2023-04-25T12:03:03;11.30;;;2.13;;
15665;SDS011;20725;51.196;3.510;2023-04-25T12:05:31;3.10;;;1.20;;
15665;SDS011;20725;51.196;3.510;2023-04-25T12:08:11;3.65;;;1.50;;
15665;SDS011;20725;51.196;3.510;2023-04-25T12:10:39;5.63;;;1.63;;
15665;SDS011;20725;51.196;3.510;2023-04-25T12:13:19;7.07;;;1.57;;
15665;SDS011;20725;51.196;3.510;2023-04-25T12:15:47;7.23;;;1.60;;
15665;SDS011;20725;51.196;3.510;2023-04-25T12:18:18;3.97;;;1.50;;
15665;SDS011;20725;51.196;3.510;2023-04-25T12:20:45;6.30;;;1.50;;
15665;SDS011;20725;51.196;3.510;2023-04-25T12:23:13;3.90;;;1.40;;
15665;SDS011;20725;51.196;3.510;2023-04-25T12:25:40;3.87;;;1.67;;
15665;SDS011;20725;51.196;3.510;2023-04-25T12:28:09;3.67;;;1.67;;
15665;SDS011;20725;51.196;3.510;2023-04-25T12:30:51;3.20;;;1.53;;
15665;SDS011;20725;51.196;3.510;2023-04-25T12:33:20;5.00;;;1.77;;
15665;SDS011;20725;51.196;3.510;2023-04-25T12:35:47;9.30;;;1.90;;
15665;SDS011;20725;51.196;3.510;2023-04-25T12:38:20;4.83;;;1.63;;
15665;SDS011;20725;51.196;3.510;2023-04-25T12:40:47;3.00;;;1.90;;
15665;SDS011;20725;51.196;3.510;2023-04-25T12:43:15;5.63;;;1.77;;
15665;SDS011;20725;51.196;3.510;2023-04-25T12:45:42;4.40;;;1.70;;
15665;SDS011;20725;51.196;3.510;2023-04-25T12:48:09;8.50;;;1.77;;
15665;SDS011;20725;51.196;3.510;2023-04-25T12:50:38;6.53;;;2.20;;
15665;SDS011;20725;51.196;3.510;2023-04-25T12:53:06;5.70;;;1.70;;
15665;SDS011;20725;51.196;3.510;2023-04-25T12:55:33;5.63;;;1.97;;
15665;SDS011;20725;51.196;3.510;2023-04-25T12:58:00;4.67;;;1.60;;
15665;SDS011;20725;51.196;3.510;2023-04-25T13:00:28;7.43;;;1.80;;
15665;SDS011;20725;51.196;3.510;2023-04-25T13:02:55;5.40;;;1.70;;
15665;SDS011;20725;51.196;3.510;2023-04-25T13:05:22;6.63;;;2.10;;
15665;SDS011;20725;51.196;3.510;2023-04-25T13:07:51;3.20;;;1.60;;
15665;SDS011;20725;51.196;3.510;2023-04-25T13:10:19;2.23;;;1.10;;
15665;SDS011;20725;51.196;3.510;2023-04-25T13:12:46;5.73;;;1.90;;
15665;SDS011;20725;51.196;3.510;2023-04-25T13:15:13;4.17;;;1.33;;
15665;SDS011;20725;51.196;3.510;2023-04-25T13:17:41;4.90;;;1.40;;
15665;SDS011;20725;51.196;3.510;2023-04-25T13:20:09;5.50;;;1.50;;
15665;SDS011;20725;51.196;3.510;2023-04-25T13:22:36;4.83;;;1.53;;
15665;SDS011;20725;51.196;3.510;2023-04-25T13:25:06;5.17;;;1.50;;
15665;SDS011;20725;51.196;3.510;2023-04-25T13:27:34;5.27;;;2.00;;
15665;SDS011;20725;51.196;3.510;2023-04-25T13:30:03;3.67;;;1.50;;
15665;SDS011;20725;51.196;3.510;2023-04-25T13:32:32;3.72;;;1.58;;
15665;SDS011;20725;51.196;3.510;2023-04-25T13:35:01;4.93;;;1.90;;
15665;SDS011;20725;51.196;3.510;2023-04-25T13:37:28;5.57;;;1.80;;
15665;SDS011;20725;51.196;3.510;2023-04-25T13:39:58;4.43;;;1.60;;
15665;SDS011;20725;51.196;3.510;2023-04-25T13:42:27;4.65;;;1.67;;
15665;SDS011;20725;51.196;3.510;2023-04-25T13:44:54;6.18;;;1.88;;
15665;SDS011;20725;51.196;3.510;2023-04-25T13:47:21;3.40;;;1.67;;
15665;SDS011;20725;51.196;3.510;2023-04-25T13:49:49;6.13;;;1.70;;
15665;SDS011;20725;51.196;3.510;2023-04-25T13:52:16;5.07;;;1.50;;
15665;SDS011;20725;51.196;3.510;2023-04-25T13:54:43;3.93;;;1.53;;
15665;SDS011;20725;51.196;3.510;2023-04-25T13:57:11;6.30;;;1.70;;
15665;SDS011;20725;51.196;3.510;2023-04-25T13:59:39;3.40;;;1.43;;
15665;SDS011;20725;51.196;3.510;2023-04-25T14:02:07;4.80;;;1.57;;
15665;SDS011;20725;51.196;3.510;2023-04-25T14:04:34;4.20;;;1.53;;
15665;SDS011;20725;51.196;3.510;2023-04-25T14:07:02;5.17;;;1.30;;
15665;SDS011;20725;51.196;3.510;2023-04-25T14:09:30;3.90;;;1.60;;
15665;SDS011;20725;51.196;3.510;2023-04-25T14:11:57;3.73;;;1.60;;
15665;SDS011;20725;51.196;3.510;2023-04-25T14:14:25;2.40;;;1.27;;
15665;SDS011;20725;51.196;3.510;2023-04-25T14:16:54;2.30;;;1.10;;
15665;SDS011;20725;51.196;3.510;2023-04-25T14:19:22;3.37;;;1.60;;
15665;SDS011;20725;51.196;3.510;2023-04-25T14:21:50;5.13;;;1.50;;
15665;SDS011;20725;51.196;3.510;2023-04-25T14:24:17;6.83;;;1.70;;
15665;SDS011;20725;51.196;3.510;2023-04-25T14:26:44;5.10;;;1.40;;
15665;SDS011;20725;51.196;3.510;2023-04-25T14:29:11;2.93;;;1.23;;
15665;SDS011;20725;51.196;3.510;2023-04-25T14:31:39;4.87;;;1.80;;
15665;SDS011;20725;51.196;3.510;2023-04-25T14:34:08;5.57;;;1.53;;
15665;SDS011;20725;51.196;3.510;2023-04-25T14:36:35;5.00;;;1.60;;
15665;SDS011;20725;51.196;3.510;2023-04-25T14:39:03;3.67;;;1.50;;
15665;SDS011;20725;51.196;3.510;2023-04-25T14:41:31;2.93;;;1.40;;
15665;SDS011;20725;51.196;3.510;2023-04-25T14:43:58;6.57;;;2.17;;
15665;SDS011;20725;51.196;3.510;2023-04-25T14:46:26;5.73;;;2.07;;
15665;SDS011;20725;51.196;3.510;2023-04-25T14:48:53;5.53;;;1.57;;
15665;SDS011;20725;51.196;3.510;2023-04-25T14:51:22;3.97;;;1.40;;
15665;SDS011;20725;51.196;3.510;2023-04-25T14:53:51;5.43;;;1.33;;
15665;SDS011;20725;51.196;3.510;2023-04-25T14:56:18;7.83;;;1.60;;
15665;SDS011;20725;51.196;3.510;2023-04-25T14:58:46;3.80;;;1.80;;
15665;SDS011;20725;51.196;3.510;2023-04-25T15:01:13;7.00;;;1.80;;
15665;SDS011;20725;51.196;3.510;2023-04-25T15:03:40;2.97;;;1.47;;
15665;SDS011;20725;51.196;3.510;2023-04-25T15:06:08;4.87;;;1.83;;
15665;SDS011;20725;51.196;3.510;2023-04-25T15:08:37;6.43;;;1.90;;
15665;SDS011;20725;51.196;3.510;2023-04-25T15:11:04;4.27;;;1.33;;
15665;SDS011;20725;51.196;3.510;2023-04-25T15:13:31;4.50;;;2.00;;
15665;SDS011;20725;51.196;3.510;2023-04-25T15:15:59;3.73;;;1.80;;
15665;SDS011;20725;51.196;3.510;2023-04-25T15:18:27;4.97;;;1.87;;
15665;SDS011;20725;51.196;3.510;2023-04-25T15:20:54;7.93;;;1.93;;
15665;SDS011;20725;51.196;3.510;2023-04-25T15:23:21;4.93;;;1.63;;
15665;SDS011;20725;51.196;3.510;2023-04-25T15:25:50;4.97;;;1.60;;
15665;SDS011;20725;51.196;3.510;2023-04-25T15:28:18;4.13;;;1.90;;
15665;SDS011;20725;51.196;3.510;2023-04-25T15:30:46;6.03;;;2.10;;
15665;SDS011;20725;51.196;3.510;2023-04-25T15:33:13;4.67;;;2.03;;
15665;SDS011;20725;51.196;3.510;2023-04-25T15:35:40;6.00;;;1.70;;
15665;SDS011;20725;51.196;3.510;2023-04-25T15:38:08;4.30;;;1.70;;
15665;SDS011;20725;51.196;3.510;2023-04-25T15:40:36;6.30;;;1.93;;
15665;SDS011;20725;51.196;3.510;2023-04-25T15:43:05;4.63;;;2.10;;
15665;SDS011;20725;51.196;3.510;2023-04-25T15:45:35;5.53;;;1.90;;